Time;durP1;ratioP1;P1;durP2;ratioP2;P2;SDS_P1;SDS_P2;PMS_P1;PMS_P2;Temp;Humidity;BMP_temperature;BMP_pressure;BME280_temperature;BME280_humidity;BME280_pressure;Samples;Min_cycle;Max_cycle;Signal;HPM_P1;HPM_P2
2023/04/17 00:01:49;;;;;;;7.57;5.10;;;;;;;12.83;100.00;99219.22;5020622;28;20034;-64
2023/04/17 00:04:15;;;;;;;9.52;5.60;;;;;;;12.34;100.00;99219.03;5019349;28;20042;-68
2023/04/17 00:06:42;;;;;;;13.48;5.88;;;;;;;12.13;100.00;99209.19;5021643;28;20041;-65
2023/04/17 00:09:08;;;;;;;11.18;5.38;;;;;;;11.92;100.00;99214.44;5018638;28;20041;-64
2023/04/17 00:11:34;;;;;;;9.73;5.60;;;;;;;11.72;100.00;99206.16;5018322;28;20041;-68
2023/04/17 00:13:59;;;;;;;9.15;5.88;;;;;;;11.64;100.00;99196.47;5022004;28;20065;-64
2023/04/17 00:16:25;;;;;;;9.88;6.00;;;;;;;11.80;100.00;99201.63;5020814;28;20259;-68
2023/04/17 00:18:52;;;;;;;11.77;6.30;;;;;;;11.80;100.00;99193.66;5025790;28;20105;-68
2023/04/17 00:21:18;;;;;;;14.50;7.22;;;;;;;11.80;100.00;99198.13;5027053;28;20291;-65
2023/04/17 00:23:44;;;;;;;10.45;6.50;;;;;;;11.77;100.00;99204.63;5024275;28;20447;-65
2023/04/17 00:26:11;;;;;;;11.60;5.63;;;;;;;11.67;100.00;99198.75;5024023;28;20037;-64
2023/04/17 00:28:37;;;;;;;11.23;6.63;;;;;;;11.65;100.00;99195.47;5025909;28;20243;-65
2023/04/17 00:31:03;;;;;;;10.43;5.85;;;;;;;11.49;100.00;99209.72;5024297;28;20034;-68
2023/04/17 00:33:30;;;;;;;11.07;6.22;;;;;;;11.48;100.00;99199.28;5025922;28;20034;-66
2023/04/17 00:35:55;;;;;;;10.77;6.30;;;;;;;11.39;100.00;99210.94;5024125;28;20057;-65
2023/04/17 00:38:21;;;;;;;10.63;6.22;;;;;;;11.44;100.00;99204.13;5024687;28;20330;-68
2023/04/17 00:40:47;;;;;;;12.57;6.50;;;;;;;11.49;100.00;99204.41;5023273;28;20025;-65
2023/04/17 00:43:13;;;;;;;11.73;6.10;;;;;;;11.48;100.00;99194.81;5026831;28;20113;-68
2023/04/17 00:45:40;;;;;;;10.25;5.85;;;;;;;11.46;100.00;99196.81;5026655;28;20299;-65
2023/04/17 00:48:08;;;;;;;11.65;5.88;;;;;;;11.43;100.00;99197.13;5023262;28;20130;-65
2023/04/17 00:50:34;;;;;;;8.57;5.85;;;;;;;11.37;100.00;99203.16;5022057;28;20029;-66
2023/04/17 00:53:00;;;;;;;11.73;5.60;;;;;;;11.30;100.00;99210.19;5026612;28;20042;-65
2023/04/17 00:55:27;;;;;;;11.13;5.80;;;;;;;11.31;100.00;99208.34;5025826;28;20029;-68
2023/04/17 00:57:54;;;;;;;11.45;5.68;;;;;;;11.23;100.00;99214.56;5024662;28;20399;-68
2023/04/17 01:00:20;;;;;;;12.60;6.80;;;;;;;11.67;100.00;99208.53;5030888;28;20396;-68
2023/04/17 01:02:45;;;;;;;11.27;5.97;;;;;;;12.07;100.00;99212.59;5023816;28;20037;-68
2023/04/17 01:05:11;;;;;;;11.63;6.65;;;;;;;12.37;100.00;99198.25;5025751;28;20041;-68
2023/04/17 01:07:38;;;;;;;11.02;6.35;;;;;;;12.62;100.00;99197.94;5024482;28;20042;-65
2023/04/17 01:10:05;;;;;;;9.85;5.38;;;;;;;12.77;100.00;99201.38;5021685;28;20129;-65
2023/04/17 01:12:31;;;;;;;9.52;5.43;;;;;;;12.98;100.00;99208.50;5022660;28;20064;-69
2023/04/17 01:14:56;;;;;;;9.15;5.45;;;;;;;13.16;100.00;99210.72;5025645;28;20025;-69
2023/04/17 01:17:25;;;;;;;10.65;5.85;;;;;;;13.25;100.00;99210.41;5026311;28;20042;-65
2023/04/17 01:19:51;;;;;;;8.57;4.93;;;;;;;13.36;100.00;99211.72;5022199;28;20316;-68
2023/04/17 01:22:16;;;;;;;8.90;5.38;;;;;;;13.46;100.00;99208.72;5025929;28;20029;-65
2023/04/17 01:24:42;;;;;;;9.02;5.85;;;;;;;13.55;100.00;99211.09;5025143;28;20401;-68
2023/04/17 01:27:08;;;;;;;9.75;5.70;;;;;;;13.67;100.00;99211.38;5024601;28;20235;-65
2023/04/17 01:29:34;;;;;;;8.15;5.20;;;;;;;13.76;100.00;99209.38;5026154;28;20034;-68
2023/04/17 01:32:00;;;;;;;8.60;5.60;;;;;;;13.80;100.00;99210.63;5022396;28;20033;-64
2023/04/17 01:34:26;;;;;;;8.43;5.20;;;;;;;13.83;100.00;99210.25;5021655;28;20049;-68
2023/04/17 01:36:51;;;;;;;9.65;5.82;;;;;;;13.78;100.00;99216.16;5024921;28;20049;-65
2023/04/17 01:39:17;;;;;;;11.50;5.10;;;;;;;13.71;100.00;99209.97;5022211;28;20048;-65
2023/04/17 01:41:43;;;;;;;7.45;5.10;;;;;;;13.67;100.00;99211.38;5022375;28;20308;-68
2023/04/17 01:44:09;;;;;;;9.82;5.85;;;;;;;13.55;100.00;99200.44;5021419;28;20041;-65
2023/04/17 01:46:34;;;;;;;10.68;5.60;;;;;;;13.66;100.00;99201.75;5018829;28;20044;-65
2023/04/17 01:49:00;;;;;;;7.43;5.45;;;;;;;13.71;99.97;99202.81;5023629;28;20033;-65
2023/04/17 01:51:26;;;;;;;9.07;5.78;;;;;;;13.57;100.00;99193.09;5022923;28;20038;-65
2023/04/17 01:53:52;;;;;;;9.95;6.05;;;;;;;13.48;100.00;99196.06;5025586;28;20107;-65
2023/04/17 01:56:18;;;;;;;9.73;5.53;;;;;;;13.33;100.00;99194.31;5023406;28;20121;-68
2023/04/17 01:58:43;;;;;;;10.40;6.75;;;;;;;13.17;100.00;99197.25;5022385;28;20085;-65
2023/04/17 02:01:09;;;;;;;13.57;7.03;;;;;;;13.20;100.00;99193.41;5021165;28;20267;-68
2023/04/17 02:03:34;;;;;;;8.32;5.22;;;;;;;13.20;100.00;99196.88;5025970;28;20379;-69
2023/04/17 02:06:00;;;;;;;9.57;6.03;;;;;;;13.25;100.00;99186.50;5023659;28;20041;-69
2023/04/17 02:08:26;;;;;;;9.27;5.70;;;;;;;13.34;100.00;99188.00;5022645;28;20038;-68
2023/04/17 02:10:52;;;;;;;9.48;5.53;;;;;;;13.45;100.00;99189.28;5021027;28;20052;-68
2023/04/17 02:13:17;;;;;;;9.13;6.00;;;;;;;13.47;100.00;99191.75;5028979;28;20200;-65
2023/04/17 02:15:43;;;;;;;9.38;6.00;;;;;;;13.49;99.74;99190.56;5023169;28;20029;-68
2023/04/17 02:18:09;;;;;;;10.75;5.88;;;;;;;13.45;100.00;99185.81;5019438;28;20092;-65
2023/04/17 02:20:36;;;;;;;11.52;5.45;;;;;;;13.37;100.00;99187.59;5024393;28;20041;-65
2023/04/17 02:23:02;;;;;;;8.50;5.40;;;;;;;13.26;99.47;99190.78;5023221;28;20065;-65
2023/04/17 02:25:28;;;;;;;8.95;5.30;;;;;;;13.34;98.98;99198.63;5020392;28;20100;-67
2023/04/17 02:27:55;;;;;;;12.30;6.07;;;;;;;13.41;98.92;99191.53;5020862;28;20033;-68
2023/04/17 02:30:23;;;;;;;9.05;6.40;;;;;;;13.43;99.06;99192.16;5023739;28;20045;-65
2023/04/17 02:32:53;;;;;;;6.25;5.30;;;;;;;13.46;98.24;99195.44;5029352;28;20093;-68
2023/04/17 02:35:19;;;;;;;8.75;5.43;;;;;;;13.31;96.64;99193.69;5019470;28;20033;-65
2023/04/17 02:37:45;;;;;;;9.63;5.55;;;;;;;13.21;98.97;99193.22;5020477;28;20068;-65
2023/04/17 02:40:11;;;;;;;9.88;5.88;;;;;;;12.98;99.74;99188.06;5024075;28;20072;-65
2023/04/17 02:42:36;;;;;;;8.98;5.53;;;;;;;12.79;99.59;99196.69;5023751;28;20311;-65
2023/04/17 02:45:03;;;;;;;10.60;5.78;;;;;;;12.53;100.00;99199.88;5022761;28;20050;-65
2023/04/17 02:47:29;;;;;;;8.07;5.72;;;;;;;12.28;100.00;99196.72;5023126;28;20036;-65
2023/04/17 02:49:55;;;;;;;11.48;6.13;;;;;;;12.08;100.00;99196.47;5021572;28;20241;-65
2023/04/17 02:52:21;;;;;;;9.32;5.43;;;;;;;11.91;100.00;99188.91;5020042;28;20045;-65
2023/04/17 02:54:47;;;;;;;10.93;6.45;;;;;;;11.95;100.00;99198.97;5023945;28;20063;-69
2023/04/17 02:57:12;;;;;;;10.98;5.63;;;;;;;12.06;100.00;99190.53;5023760;28;20033;-68
2023/04/17 02:59:38;;;;;;;11.20;5.88;;;;;;;12.24;100.00;99189.31;5021917;28;20080;-68
2023/04/17 03:02:04;;;;;;;13.70;7.13;;;;;;;12.41;100.00;99190.75;5020738;28;20038;-65
2023/04/17 03:04:29;;;;;;;13.20;6.97;;;;;;;12.49;100.00;99195.16;5020949;28;20119;-65
2023/04/17 03:06:55;;;;;;;11.13;6.32;;;;;;;12.50;100.00;99191.47;5021805;28;20033;-65
2023/04/17 03:09:22;;;;;;;15.32;7.90;;;;;;;12.66;100.00;99191.25;5019250;28;20049;-65
2023/04/17 03:11:48;;;;;;;12.07;5.57;;;;;;;12.78;100.00;99182.56;5020923;28;20030;-66
2023/04/17 03:14:14;;;;;;;10.93;6.30;;;;;;;12.91;100.00;99179.22;5023247;28;20056;-68
2023/04/17 03:16:39;;;;;;;10.95;6.40;;;;;;;12.98;99.65;99182.75;5021833;28;20213;-68
2023/04/17 03:19:05;;;;;;;9.95;6.43;;;;;;;13.14;98.83;99176.34;5021790;28;20050;-68
2023/04/17 03:21:31;;;;;;;9.38;5.65;;;;;;;13.19;98.83;99173.97;5018785;28;20096;-64
2023/04/17 03:23:57;;;;;;;11.60;6.00;;;;;;;13.03;99.16;99188.31;5022689;28;20041;-69
2023/04/17 03:26:22;;;;;;;15.45;6.35;;;;;;;13.12;99.40;99178.38;5022896;28;20054;-65
2023/04/17 03:28:48;;;;;;;9.80;6.50;;;;;;;13.05;98.54;99180.97;5020792;28;20423;-65
2023/04/17 03:31:13;;;;;;;8.73;6.10;;;;;;;13.03;99.33;99182.19;5022636;28;20084;-65
2023/04/17 03:33:39;;;;;;;12.23;6.35;;;;;;;13.09;98.90;99168.94;5020239;28;20088;-65
2023/04/17 03:36:05;;;;;;;9.70;6.13;;;;;;;13.12;98.68;99173.06;5020465;28;20236;-68
2023/04/17 03:38:31;;;;;;;11.68;5.90;;;;;;;13.21;98.13;99179.09;5024556;28;20034;-68
2023/04/17 03:40:57;;;;;;;9.60;6.32;;;;;;;13.06;98.02;99147.25;5021360;28;20091;-64
2023/04/17 03:43:23;;;;;;;11.90;5.72;;;;;;;13.31;96.89;99177.75;5019463;28;20029;-64
2023/04/17 03:45:48;;;;;;;10.73;5.88;;;;;;;13.28;96.28;99182.63;5023951;28;20148;-68
2023/04/17 03:48:14;;;;;;;10.23;6.15;;;;;;;13.29;95.21;99185.09;5020083;28;20336;-69
2023/04/17 03:50:39;;;;;;;8.82;5.75;;;;;;;13.21;95.66;99203.03;5019703;28;20077;-64
2023/04/17 03:53:05;;;;;;;7.60;5.50;;;;;;;13.13;95.92;99203.94;5022050;28;20232;-65
2023/04/17 03:55:30;;;;;;;11.48;5.90;;;;;;;13.09;95.58;99202.69;5019649;28;20065;-68
2023/04/17 03:57:56;;;;;;;8.13;5.47;;;;;;;13.07;95.06;99205.53;5021477;28;20129;-68
2023/04/17 04:00:22;;;;;;;8.52;5.55;;;;;;;12.95;95.71;99207.06;5019220;28;20248;-65
2023/04/17 04:02:47;;;;;;;8.90;5.70;;;;;;;12.71;96.53;99210.09;5019566;28;20040;-67
2023/04/17 04:05:13;;;;;;;11.13;5.95;;;;;;;12.76;96.27;99211.16;5019059;28;20367;-65
2023/04/17 04:07:39;;;;;;;9.18;6.05;;;;;;;12.57;96.93;99209.13;5022991;28;20108;-65
2023/04/17 04:10:05;;;;;;;13.30;6.43;;;;;;;12.63;97.22;99208.38;5019732;28;20105;-65
2023/04/17 04:12:31;;;;;;;11.07;6.65;;;;;;;12.70;97.77;99209.28;5019241;28;20075;-69
2023/04/17 04:14:56;;;;;;;10.60;5.93;;;;;;;12.67;97.66;99220.28;5022505;28;20041;-65
2023/04/17 04:17:22;;;;;;;8.52;6.22;;;;;;;12.70;96.87;99216.41;5021319;28;20038;-65
2023/04/17 04:19:47;;;;;;;9.27;5.90;;;;;;;12.65;97.26;99219.63;5018590;28;20077;-68
2023/04/17 04:22:13;;;;;;;9.15;6.10;;;;;;;12.73;96.99;99222.16;5024358;28;20026;-68
2023/04/17 04:24:39;;;;;;;9.48;6.15;;;;;;;12.77;96.66;99209.34;5018027;28;20075;-66
2023/04/17 04:27:08;;;;;;;9.73;6.22;;;;;;;12.87;96.18;99223.13;5018756;28;20327;-65
2023/04/17 04:29:36;;;;;;;8.27;5.90;;;;;;;12.89;95.89;99229.06;5020830;28;20261;-65
2023/04/17 04:32:02;;;;;;;9.50;6.20;;;;;;;12.86;95.53;99226.78;5022249;28;20075;-68
2023/04/17 04:34:28;;;;;;;10.23;6.90;;;;;;;12.96;95.75;99229.97;5020248;28;20068;-65
2023/04/17 04:36:57;;;;;;;11.57;6.55;;;;;;;12.84;95.06;99239.44;5020005;28;20034;-68
2023/04/17 04:39:24;;;;;;;9.35;5.68;;;;;;;12.70;95.87;99238.50;5019533;28;20335;-69
2023/04/17 04:41:50;;;;;;;17.40;9.82;;;;;;;12.76;95.39;99245.72;5020550;28;20610;-65
2023/04/17 04:44:19;;;;;;;27.90;15.32;;;;;;;12.61;95.85;99250.25;5018526;28;20121;-65
2023/04/17 04:46:45;;;;;;;17.67;11.75;;;;;;;12.55;97.68;99244.84;5022367;28;20219;-68
2023/04/17 04:49:11;;;;;;;15.25;9.23;;;;;;;12.67;97.48;99246.84;5021650;28;20405;-65
2023/04/17 04:51:37;;;;;;;14.10;8.32;;;;;;;12.78;97.09;99241.03;5019983;28;20041;-65
2023/04/17 04:54:03;;;;;;;11.43;7.13;;;;;;;12.84;97.08;99241.28;5021987;28;20056;-65
2023/04/17 04:56:29;;;;;;;12.55;6.65;;;;;;;12.87;97.39;99235.59;5021581;28;20044;-68
2023/04/17 04:58:55;;;;;;;11.80;7.00;;;;;;;12.84;97.48;99243.94;5021724;28;20084;-68
2023/04/17 05:01:21;;;;;;;13.02;6.45;;;;;;;12.85;98.58;99251.72;5018359;28;20030;-65
2023/04/17 05:03:47;;;;;;;9.30;6.65;;;;;;;12.92;99.20;99262.41;5021705;28;20101;-65
2023/04/17 05:06:13;;;;;;;13.60;7.43;;;;;;;13.14;98.49;99258.75;5021631;28;20038;-68
2023/04/17 05:08:41;;;;;;;25.63;10.63;;;;;;;13.32;97.50;99261.00;5022741;28;20040;-68
2023/04/17 05:11:07;;;;;;;14.00;8.10;;;;;;;13.32;97.65;99256.50;5026530;28;20068;-65
2023/04/17 05:13:33;;;;;;;14.50;8.00;;;;;;;13.32;98.07;99248.53;5024660;28;20034;-65
2023/04/17 05:15:58;;;;;;;16.02;8.45;;;;;;;13.32;98.76;99259.16;5023771;28;20063;-68
2023/04/17 05:18:24;;;;;;;38.55;16.45;;;;;;;13.14;100.00;99256.09;5021745;28;20033;-65
2023/04/17 05:20:50;;;;;;;24.15;15.05;;;;;;;13.29;100.00;99248.09;5025933;28;20029;-65
2023/04/17 05:23:16;;;;;;;25.33;15.32;;;;;;;13.38;99.96;99255.72;5024260;28;20068;-68
2023/04/17 05:25:43;;;;;;;26.42;17.67;;;;;;;13.54;99.66;99264.47;5022135;28;20125;-65
2023/04/17 05:28:09;;;;;;;27.65;17.45;;;;;;;13.67;99.88;99261.91;5021373;28;20049;-69
2023/04/17 05:30:35;;;;;;;31.55;18.92;;;;;;;13.75;99.62;99259.09;5024552;28;20131;-68
2023/04/17 05:33:00;;;;;;;32.90;18.10;;;;;;;13.73;100.00;99256.66;5023942;28;20448;-65
2023/04/17 05:35:26;;;;;;;28.83;16.27;;;;;;;13.63;100.00;99250.03;5026045;28;20101;-68
2023/04/17 05:37:53;;;;;;;25.63;12.63;;;;;;;13.86;100.00;99245.25;5022465;28;20328;-68
2023/04/17 05:40:19;;;;;;;17.63;9.50;;;;;;;14.00;100.00;99244.31;5020116;28;20041;-68
2023/04/17 05:42:44;;;;;;;16.65;9.00;;;;;;;14.07;100.00;99239.84;5024792;28;20045;-66
2023/04/17 05:45:19;;;;;;;13.90;8.50;;;;;;;14.06;100.00;99245.38;5024317;28;20216;-68
2023/04/17 05:47:45;;;;;;;10.95;6.78;;;;;;;13.92;100.00;99236.50;5022304;28;20030;-65
2023/04/17 05:50:11;;;;;;;13.48;7.07;;;;;;;13.78;100.00;99247.25;5026027;28;20479;-64
2023/04/17 05:52:36;;;;;;;14.15;7.50;;;;;;;13.55;100.00;99239.53;5025094;28;20038;-65
2023/04/17 05:55:02;;;;;;;13.23;6.80;;;;;;;13.39;100.00;99256.56;5024963;28;20109;-68
2023/04/17 05:57:28;;;;;;;9.63;6.40;;;;;;;12.95;100.00;99262.03;5029370;28;20220;-68
2023/04/17 05:59:54;;;;;;;13.63;6.68;;;;;;;12.86;100.00;99258.69;5021239;28;20029;-68
2023/04/17 06:02:19;;;;;;;9.70;5.75;;;;;;;12.72;100.00;99265.69;5025353;28;20079;-64
2023/04/17 06:04:45;;;;;;;12.00;6.60;;;;;;;12.62;100.00;99269.66;5023643;28;20052;-64
2023/04/17 06:07:11;;;;;;;13.70;7.55;;;;;;;12.73;100.00;99266.50;5024346;28;20034;-67
2023/04/17 06:09:37;;;;;;;12.10;8.13;;;;;;;12.56;100.00;99267.75;5021155;28;20053;-68
2023/04/17 06:12:06;;;;;;;14.50;8.50;;;;;;;12.59;100.00;99284.13;5024858;28;20143;-65
2023/04/17 06:14:32;;;;;;;12.32;7.65;;;;;;;12.88;100.00;99279.75;5023047;28;20038;-65
2023/04/17 06:16:57;;;;;;;12.95;7.93;;;;;;;12.96;100.00;99283.13;5021055;28;20049;-67
2023/04/17 06:19:23;;;;;;;14.63;8.30;;;;;;;13.05;100.00;99283.81;5021317;28;20193;-65
2023/04/17 06:21:49;;;;;;;13.48;7.50;;;;;;;13.03;100.00;99296.47;5025087;28;20046;-68
2023/04/17 06:24:15;;;;;;;13.30;7.53;;;;;;;12.86;100.00;99279.94;5025628;28;20025;-68
2023/04/17 06:26:40;;;;;;;12.18;7.03;;;;;;;12.60;100.00;99293.75;5024088;28;20113;-65
2023/04/17 06:29:06;;;;;;;11.90;7.22;;;;;;;12.71;100.00;99301.22;5024733;28;20068;-66
2023/04/17 06:31:31;;;;;;;11.52;6.95;;;;;;;12.42;100.00;99298.59;5021489;28;20036;-68
2023/04/17 06:33:57;;;;;;;13.70;7.18;;;;;;;12.47;100.00;99302.34;5022505;28;20022;-65
2023/04/17 06:36:22;;;;;;;13.00;8.02;;;;;;;12.79;100.00;99306.44;5021294;28;20244;-66
2023/04/17 06:38:48;;;;;;;15.02;8.25;;;;;;;12.93;100.00;99304.75;5021353;28;20037;-65
2023/04/17 06:41:13;;;;;;;14.50;8.38;;;;;;;13.23;100.00;99296.69;5024255;28;20029;-68
2023/04/17 06:43:39;;;;;;;15.13;8.63;;;;;;;13.39;100.00;99307.09;5022555;28;20041;-65
2023/04/17 06:46:04;;;;;;;14.77;8.85;;;;;;;13.58;100.00;99310.97;5020454;28;20338;-65
2023/04/17 06:48:30;;;;;;;15.02;7.93;;;;;;;13.71;100.00;99313.72;5024235;28;20152;-65
2023/04/17 06:50:55;;;;;;;11.73;7.90;;;;;;;13.76;99.39;99319.28;5023590;28;20076;-68
2023/04/17 06:53:21;;;;;;;13.88;7.95;;;;;;;14.07;98.92;99308.25;5021810;28;20026;-65
2023/04/17 06:55:46;;;;;;;13.48;8.35;;;;;;;14.32;98.05;99324.59;5019941;28;20193;-68
2023/04/17 06:58:12;;;;;;;13.60;8.43;;;;;;;14.33;98.01;99324.38;5023729;28;20099;-65
2023/04/17 07:00:37;;;;;;;12.10;8.20;;;;;;;14.55;97.12;99327.00;5023630;28;20045;-65
2023/04/17 07:03:04;;;;;;;11.85;8.45;;;;;;;14.57;95.42;99324.97;5021887;28;20034;-65
2023/04/17 07:05:29;;;;;;;13.50;8.68;;;;;;;14.50;96.08;99324.91;5020524;28;20022;-65
2023/04/17 07:07:55;;;;;;;13.90;8.02;;;;;;;14.35;96.32;99325.00;5024020;28;20327;-64
2023/04/17 07:10:20;;;;;;;14.90;7.88;;;;;;;14.45;96.20;99326.53;5020832;28;20049;-68
2023/04/17 07:12:46;;;;;;;15.88;9.43;;;;;;;14.54;95.40;99326.16;5024188;28;20047;-68
2023/04/17 07:15:11;;;;;;;12.93;7.97;;;;;;;14.58;95.09;99331.97;5023522;28;20029;-66
2023/04/17 07:17:37;;;;;;;15.85;8.93;;;;;;;14.38;96.74;99329.13;5021072;28;20255;-66
2023/04/17 07:20:06;;;;;;;15.30;8.52;;;;;;;14.41;95.98;99336.72;5021235;28;20030;-65
2023/04/17 07:22:33;;;;;;;12.27;8.10;;;;;;;14.45;95.71;99334.53;5024753;28;20181;-68
2023/04/17 07:24:58;;;;;;;11.82;7.40;;;;;;;14.44;96.19;99330.22;5023115;28;20343;-65
2023/04/17 07:27:24;;;;;;;14.48;7.57;;;;;;;14.41;97.14;99334.06;5022642;28;20052;-65
2023/04/17 07:29:53;;;;;;;13.40;7.22;;;;;;;14.54;95.80;99338.66;5020646;28;20064;-65
2023/04/17 07:32:20;;;;;;;11.82;7.22;;;;;;;14.54;96.34;99333.34;5024058;28;20378;-65
2023/04/17 07:34:46;;;;;;;12.73;7.55;;;;;;;14.50;95.41;99322.25;5021189;28;20037;-68
2023/04/17 07:37:12;;;;;;;14.50;7.78;;;;;;;14.45;95.58;99326.53;5020055;28;20113;-68
2023/04/17 07:39:37;;;;;;;15.93;7.35;;;;;;;14.50;96.94;99335.56;5022312;28;20105;-68
2023/04/17 07:42:05;;;;;;;11.40;6.65;;;;;;;14.60;96.71;99329.91;5022030;28;20033;-65
2023/04/17 07:44:31;;;;;;;12.30;7.47;;;;;;;14.56;96.39;99328.63;5019917;28;20029;-64
2023/04/17 07:46:57;;;;;;;13.55;6.90;;;;;;;14.58;96.54;99331.97;5019062;28;20060;-65
2023/04/17 07:49:22;;;;;;;10.10;6.65;;;;;;;14.60;97.07;99337.91;5022757;28;20034;-65
2023/04/17 07:51:48;;;;;;;11.50;6.97;;;;;;;14.43;97.57;99334.72;5021898;28;20244;-68
2023/04/17 07:54:13;;;;;;;9.32;6.35;;;;;;;14.56;97.13;99329.47;5018135;28;20049;-65
2023/04/17 07:56:39;;;;;;;11.10;6.88;;;;;;;14.62;97.77;99330.53;5023580;28;20354;-68
2023/04/17 07:59:04;;;;;;;14.68;8.10;;;;;;;14.58;100.00;99329.28;5020622;28;20057;-64
2023/04/17 08:01:30;;;;;;;13.35;8.45;;;;;;;14.35;100.00;99335.66;5019284;28;20052;-65
2023/04/17 08:03:56;;;;;;;12.43;7.72;;;;;;;14.38;100.00;99332.63;5017076;28;20030;-68
2023/04/17 08:06:22;;;;;;;13.85;8.35;;;;;;;14.42;100.00;99335.75;5021050;28;20080;-65
2023/04/17 08:08:48;;;;;;;12.05;7.85;;;;;;;14.52;100.00;99330.88;5023868;28;20265;-65
2023/04/17 08:11:14;;;;;;;12.65;7.90;;;;;;;14.60;100.00;99333.41;5018954;28;20330;-66
2023/04/17 08:13:39;;;;;;;11.73;7.90;;;;;;;14.64;100.00;99324.00;5019773;28;20045;-68
2023/04/17 08:16:06;;;;;;;13.00;8.10;;;;;;;14.68;100.00;99329.75;5023961;28;20038;-68
2023/04/17 08:18:32;;;;;;;12.07;8.05;;;;;;;14.77;100.00;99322.41;5021042;28;20033;-68
2023/04/17 08:20:58;;;;;;;13.23;8.73;;;;;;;14.84;100.00;99332.06;5023250;28;20040;-68
2023/04/17 08:23:23;;;;;;;12.23;8.10;;;;;;;14.85;100.00;99324.91;5022022;28;20042;-68
2023/04/17 08:25:49;;;;;;;11.40;8.45;;;;;;;14.52;100.00;99332.72;5027595;28;20048;-65
2023/04/17 08:28:14;;;;;;;7.97;5.63;;;;;;;14.31;100.00;99328.28;5022845;28;20030;-65
2023/04/17 08:30:39;;;;;;;8.10;5.38;;;;;;;13.96;100.00;99335.41;5021162;28;20053;-65
2023/04/17 08:33:05;;;;;;;5.88;4.70;;;;;;;13.75;100.00;99328.28;5019801;28;20044;-65
2023/04/17 08:35:31;;;;;;;7.78;5.50;;;;;;;13.83;100.00;99332.66;5021450;28;20219;-69
2023/04/17 08:37:58;;;;;;;11.25;6.60;;;;;;;13.73;100.00;99322.34;5020228;28;20074;-68
2023/04/17 08:40:25;;;;;;;9.90;7.68;;;;;;;13.73;100.00;99319.69;5021023;28;20033;-65
2023/04/17 08:42:52;;;;;;;9.65;7.97;;;;;;;13.78;100.00;99319.09;5025798;28;20037;-68
2023/04/17 08:45:19;;;;;;;8.55;6.80;;;;;;;13.86;100.00;99319.78;5026030;28;20053;-68
2023/04/17 08:47:45;;;;;;;11.07;7.75;;;;;;;13.98;100.00;99309.44;5023871;28;20354;-66
2023/04/17 08:50:16;;;;;;;10.70;8.52;;;;;;;14.12;100.00;99308.50;5027542;28;20030;-66
2023/04/17 08:52:50;;;;;;;10.38;8.20;;;;;;;14.25;100.00;99311.22;5026781;28;20140;-68
2023/04/17 08:55:21;;;;;;;11.70;9.18;;;;;;;14.41;100.00;99312.75;5026405;28;20101;-68
2023/04/17 08:57:56;;;;;;;12.55;7.93;;;;;;;14.12;100.00;99310.34;5029803;28;20049;-65
2023/04/17 09:00:30;;;;;;;10.65;8.70;;;;;;;14.09;100.00;99311.53;5023695;28;20356;-68
2023/04/17 09:02:57;;;;;;;10.65;7.50;;;;;;;13.89;100.00;99316.72;5025879;28;20029;-68
2023/04/17 09:05:24;;;;;;;12.88;9.25;;;;;;;14.04;100.00;99319.28;5026426;28;20117;-68
2023/04/17 09:08:04;;;;;;;11.27;9.00;;;;;;;14.34;100.00;99322.56;5022537;28;20037;-68
2023/04/17 09:10:50;;;;;;;12.27;9.27;;;;;;;14.56;100.00;99321.47;5029866;28;20037;-66
2023/04/17 09:13:17;;;;;;;10.27;7.30;;;;;;;14.50;100.00;99326.75;5022070;28;20053;-66
2023/04/17 09:15:45;;;;;;;10.68;8.20;;;;;;;14.55;100.00;99317.16;5027342;28;20030;-68
2023/04/17 09:18:29;;;;;;;10.93;8.55;;;;;;;14.49;100.00;99317.94;5029410;28;20396;-65
2023/04/17 09:20:56;;;;;;;12.05;8.38;;;;;;;14.40;100.00;99332.41;5026650;28;20223;-65
2023/04/17 09:23:22;;;;;;;13.88;9.20;;;;;;;14.46;100.00;99322.84;5020969;28;20205;-68
2023/04/17 09:26:04;;;;;;;10.05;7.57;;;;;;;14.44;100.00;99324.88;5023115;28;20038;-66
2023/04/17 09:28:34;;;;;;;10.23;8.45;;;;;;;14.41;100.00;99323.41;5019042;28;20053;-68
2023/04/17 09:31:03;;;;;;;9.68;8.10;;;;;;;14.49;100.00;99319.78;5021794;28;20415;-68
2023/04/17 09:33:28;;;;;;;10.27;7.60;;;;;;;14.41;100.00;99318.09;5024659;28;20030;-68
2023/04/17 09:35:54;;;;;;;11.50;7.97;;;;;;;14.53;100.00;99321.03;5023286;28;20267;-68
2023/04/17 09:38:36;;;;;;;11.75;8.20;;;;;;;14.67;100.00;99315.59;5022386;28;20354;-65
2023/04/17 09:41:02;;;;;;;12.10;8.77;;;;;;;14.88;100.00;99308.50;5025405;28;20223;-66
2023/04/17 09:43:42;;;;;;;12.43;7.97;;;;;;;15.06;100.00;99308.75;5028517;28;20029;-68
2023/04/17 09:46:07;;;;;;;12.15;7.93;;;;;;;15.04;100.00;99301.97;5024962;28;20037;-68
2023/04/17 09:48:33;;;;;;;12.23;8.18;;;;;;;15.33;100.00;99310.44;5022356;28;20056;-68
2023/04/17 09:50:59;;;;;;;12.38;9.45;;;;;;;15.47;100.00;99302.47;5025344;28;20043;-65
2023/04/17 09:53:25;;;;;;;10.55;8.38;;;;;;;15.43;100.00;99306.56;5023908;28;20048;-68
2023/04/17 09:55:52;;;;;;;10.60;8.50;;;;;;;15.54;100.00;99295.28;5022839;28;20045;-66
2023/04/17 09:58:17;;;;;;;13.52;8.60;;;;;;;15.79;100.00;99303.56;5024882;28;20033;-68
2023/04/17 10:00:43;;;;;;;11.88;8.23;;;;;;;15.73;100.00;99299.03;5029076;28;20279;-68
2023/04/17 10:03:14;;;;;;;11.15;7.40;;;;;;;15.67;100.00;99300.69;5021782;28;20331;-68
2023/04/17 10:05:40;;;;;;;10.88;7.20;;;;;;;15.71;100.00;99301.91;5021337;28;20034;-68
2023/04/17 10:08:06;;;;;;;10.50;6.50;;;;;;;15.82;100.00;99297.78;5022674;28;20906;-66
2023/04/17 10:10:33;;;;;;;10.60;6.50;;;;;;;15.94;100.00;99288.13;5023116;28;20188;-68
2023/04/17 10:13:04;;;;;;;10.05;7.45;;;;;;;15.82;100.00;99285.28;5022595;28;20030;-68
2023/04/17 10:15:31;;;;;;;11.10;7.82;;;;;;;15.72;100.00;99292.06;5024592;28;20037;-66
2023/04/17 10:18:23;;;;;;;12.43;8.13;;;;;;;15.92;100.00;99280.31;5022157;28;20367;-68
2023/04/17 10:20:50;;;;;;;11.25;7.72;;;;;;;16.11;100.00;99272.50;5026066;28;20092;-65
2023/04/17 10:23:30;;;;;;;10.82;7.35;;;;;;;16.15;100.00;99274.53;5023344;28;20091;-65
2023/04/17 10:26:23;;;;;;;10.05;7.57;;;;;;;15.98;100.00;99277.84;5021892;28;20298;-68
2023/04/17 10:28:49;;;;;;;12.35;8.60;;;;;;;16.03;100.00;99273.53;5024215;28;20044;-66
2023/04/17 10:31:15;;;;;;;10.68;8.45;;;;;;;15.72;100.00;99281.38;5023366;28;20052;-65
2023/04/17 10:33:53;;;;;;;12.90;9.50;;;;;;;15.49;100.00;99271.06;5022980;28;20038;-68
2023/04/17 10:36:36;;;;;;;13.30;10.63;;;;;;;15.43;100.00;99277.22;5021525;28;20064;-65
2023/04/17 10:39:18;;;;;;;11.55;8.93;;;;;;;15.23;100.00;99280.69;5021654;28;20041;-66
2023/04/17 10:42:02;;;;;;;17.40;12.52;;;;;;;15.30;100.00;99284.19;5019927;28;20049;-68
2023/04/17 10:44:40;;;;;;;20.85;13.88;;;;;;;15.46;100.00;99271.47;5020158;28;20033;-66
2023/04/17 10:47:09;;;;;;;21.13;14.52;;;;;;;15.47;100.00;99247.25;5024019;28;20067;-65
2023/04/17 10:49:51;;;;;;;22.58;14.85;;;;;;;15.70;100.00;99268.25;5022037;28;20105;-68
2023/04/17 10:52:38;;;;;;;23.50;16.10;;;;;;;15.90;100.00;99265.53;5020777;28;20386;-68
2023/04/17 10:55:04;;;;;;;25.58;15.70;;;;;;;16.01;100.00;99264.91;5020907;28;20034;-65
2023/04/17 10:57:52;;;;;;;21.00;15.45;;;;;;;16.14;100.00;99264.06;5022099;28;20041;-66
2023/04/17 11:00:20;;;;;;;22.73;15.32;;;;;;;16.21;100.00;99260.34;5024147;28;20091;-65
2023/04/17 11:02:49;;;;;;;22.70;14.60;;;;;;;16.30;100.00;99266.28;5022395;28;20109;-67
2023/04/17 11:05:16;;;;;;;21.63;14.38;;;;;;;16.27;100.00;99269.34;5020585;28;20240;-65
2023/04/17 11:07:43;;;;;;;30.38;16.42;;;;;;;16.34;100.00;99283.53;5021107;28;20040;-68
2023/04/17 11:10:09;;;;;;;29.23;17.30;;;;;;;16.27;100.00;99283.53;5023599;28;20040;-66
2023/04/17 11:12:35;;;;;;;27.23;16.85;;;;;;;16.17;100.00;99288.50;5024801;28;20030;-66
2023/04/17 11:15:02;;;;;;;20.45;11.90;;;;;;;15.91;100.00;99276.03;5023498;28;20056;-68
2023/04/17 11:17:28;;;;;;;12.98;9.38;;;;;;;15.67;100.00;99292.66;5019807;28;20161;-65
2023/04/17 11:19:55;;;;;;;16.05;8.60;;;;;;;15.57;100.00;99284.19;5020331;28;20327;-65
2023/04/17 11:22:20;;;;;;;15.27;8.10;;;;;;;15.62;100.00;99289.81;5020698;28;20088;-68